Time;durP1;ratioP1;P1;durP2;ratioP2;P2;SDS_P1;SDS_P2;PMS_P1;PMS_P2;Temp;Humidity;BMP_temperature;BMP_pressure;BME280_temperature;BME280_humidity;BME280_pressure;Samples;Min_cycle;Max_cycle;Signal;HPM_P1;HPM_P2
2022/12/13 00:02:34;;;;;;;;;22.60;18.80;;;;;3.92;56.57;98060.19;6285567;27;97251;-70
2022/12/13 00:05:45;;;;;;;;;23.00;21.00;;;;;3.95;56.72;98066.97;6282401;27;96456;-67
2022/12/13 00:08:49;;;;;;;;;21.80;19.60;;;;;3.93;57.03;98062.66;6295970;27;96734;-68
2022/12/13 00:11:53;;;;;;;;;21.00;18.67;;;;;3.85;56.92;98072.66;6284190;27;96287;-68
2022/12/13 00:14:57;;;;;;;;;19.60;18.80;;;;;3.94;57.04;98071.47;6285075;27;96627;-68
2022/12/13 00:18:00;;;;;;;;;20.00;19.60;;;;;3.88;56.73;98065.09;6284348;27;96662;-67
2022/12/13 00:21:04;;;;;;;;;21.40;20.00;;;;;3.85;56.82;98059.34;6295475;27;96401;-68
2022/12/13 00:24:09;;;;;;;;;19.00;18.00;;;;;3.84;56.73;98074.50;6291857;27;96409;-68
2022/12/13 00:27:13;;;;;;;;;17.25;16.00;;;;;3.96;56.48;98081.94;6285604;27;97423;-68
2022/12/13 00:30:16;;;;;;;;;22.00;20.80;;;;;3.95;55.77;98078.47;6296937;27;96234;-67
2022/12/13 00:33:20;;;;;;;;;19.00;18.00;;;;;4.01;55.63;98082.97;6286308;27;96267;-69
2022/12/13 00:36:24;;;;;;;;;19.25;18.25;;;;;4.00;55.54;98088.53;6287686;27;96530;-68
2022/12/13 00:39:29;;;;;;;;;19.00;18.40;;;;;3.98;55.50;98091.38;6286023;27;96367;-68
2022/12/13 00:42:34;;;;;;;;;19.40;18.00;;;;;4.01;55.48;98098.97;6260009;27;97174;-69
2022/12/13 00:45:38;;;;;;;;;17.50;17.00;;;;;3.90;55.14;98103.06;6286590;27;96201;-69
2022/12/13 00:48:42;;;;;;;;;16.00;15.50;;;;;3.86;55.58;98103.66;6286778;27;96206;-69
2022/12/13 00:51:47;;;;;;;;;17.00;16.40;;;;;3.89;55.22;98105.91;6285760;27;96317;-69
2022/12/13 00:54:52;;;;;;;;;18.80;16.80;;;;;3.77;55.40;98112.81;6286606;27;96326;-69
2022/12/13 00:57:55;;;;;;;;;14.25;13.75;;;;;3.62;55.49;98114.78;6286740;27;96416;-67
2022/12/13 01:01:06;;;;;;;;;15.00;14.25;;;;;3.62;55.23;98114.78;6290540;27;96745;-68
2022/12/13 01:04:10;;;;;;;;;16.00;15.00;;;;;3.59;55.50;98110.66;6275413;27;96199;-68
2022/12/13 01:07:14;;;;;;;;;15.00;14.00;;;;;3.68;55.18;98111.34;6291137;27;96237;-68
2022/12/13 01:10:19;;;;;;;;;15.00;15.00;;;;;3.70;55.08;98112.78;6286704;27;96549;-68
2022/12/13 01:13:23;;;;;;;;;20.40;19.00;;;;;3.70;55.02;98111.97;6286764;27;96500;-69
2022/12/13 01:16:27;;;;;;;;;16.00;14.25;;;;;3.56;54.78;98092.41;6286214;27;96633;-68
2022/12/13 01:19:31;;;;;;;;;15.80;14.20;;;;;3.71;54.83;98114.44;6286468;27;96967;-68
2022/12/13 01:22:34;;;;;;;;;19.40;19.00;;;;;3.56;55.07;98096.94;6286102;27;96227;-67
2022/12/13 01:25:39;;;;;;;;;19.00;16.00;;;;;3.69;54.73;98116.47;6279704;27;96751;-69
2022/12/13 01:28:43;;;;;;;;;18.00;16.50;;;;;3.64;55.34;98110.91;6284939;27;96098;-68
2022/12/13 01:31:47;;;;;;;;;20.00;19.50;;;;;3.59;55.21;98117.84;6291982;27;96451;-68
2022/12/13 01:34:50;;;;;;;;;19.75;17.75;;;;;3.36;55.62;98126.94;6294602;27;96229;-69
2022/12/13 01:37:54;;;;;;;;;22.40;22.00;;;;;3.42;55.73;98117.34;6285796;27;96741;-67
2022/12/13 01:41:02;;;;;;;;;24.75;21.75;;;;;3.30;56.06;98118.88;6285668;27;96321;-68
2022/12/13 01:45:08;;;;;;;;;24.00;22.00;;;;;3.34;56.08;98125.47;6290057;27;96728;-69
2022/12/13 01:48:15;;;;;;;;;24.00;23.00;;;;;3.37;55.73;98117.91;6187886;28;96623;-69
2022/12/13 01:51:24;;;;;;;;;25.50;22.00;;;;;3.24;55.90;98104.50;6186441;28;97084;-68
2022/12/13 01:54:32;;;;;;;;;25.20;23.20;;;;;3.33;55.34;98131.81;6187065;28;97643;-68
2022/12/13 01:57:40;;;;;;;;;25.00;23.40;;;;;3.43;55.31;98132.28;6177245;28;96490;-69
2022/12/13 02:00:49;;;;;;;;;26.20;21.80;;;;;3.37;55.30;98139.22;6170355;28;97041;-68
2022/12/13 02:03:52;;;;;;;;;21.60;20.00;;;;;3.39;55.44;98141.69;6186524;28;96771;-68
2022/12/13 02:06:57;;;;;;;;;22.60;22.00;;;;;3.34;55.37;98144.94;6186677;28;97460;-68
2022/12/13 02:10:04;;;;;;;;;21.00;18.60;;;;;3.22;55.64;98143.00;6186741;28;96266;-68
2022/12/13 02:13:10;;;;;;;;;23.00;22.00;;;;;3.19;55.49;98157.53;6186819;28;96446;-69
2022/12/13 02:16:27;;;;;;;;;22.20;20.80;;;;;3.21;55.64;98150.19;6182186;28;96770;-68
2022/12/13 02:20:01;;;;;;;;;18.00;16.40;;;;;3.23;55.78;98150.78;6186775;28;96500;-67
2022/12/13 02:23:25;;;;;;;;;21.00;19.00;;;;;3.14;55.96;98119.16;6240689;27;97534;-69
2022/12/13 02:26:49;;;;;;;;;20.40;19.00;;;;;3.21;55.63;98157.34;6288794;27;96838;-68
2022/12/13 02:30:26;;;;;;;;;23.00;20.00;;;;;3.31;55.29;98148.00;6298503;27;96208;-69
2022/12/13 02:33:39;;;;;;;;;20.40;19.00;;;;;3.22;54.85;98149.16;6289043;27;96572;-67
2022/12/13 02:36:55;;;;;;;;;20.00;19.67;;;;;3.29;55.14;98155.34;6288665;27;96225;-68
2022/12/13 02:40:06;;;;;;;;;19.80;18.80;;;;;3.21;55.20;98165.34;6284662;27;97791;-68
2022/12/13 02:43:15;;;;;;;;;20.00;19.40;;;;;3.25;54.84;98156.75;6289217;27;96242;-68
2022/12/13 02:46:29;;;;;;;;;17.40;17.00;;;;;3.34;54.63;98157.44;6289488;27;96481;-68
2022/12/13 02:49:37;;;;;;;;;20.00;20.00;;;;;3.38;55.02;98153.38;6307864;27;96189;-67
2022/12/13 02:52:45;;;;;;;;;22.60;22.60;;;;;3.17;55.19;98161.41;6289839;27;97006;-68
2022/12/13 02:55:48;;;;;;;;;20.60;19.00;;;;;3.13;55.34;98160.16;6280157;27;96220;-67
2022/12/13 02:58:56;;;;;;;;;23.00;23.00;;;;;3.24;55.23;98167.59;6288737;27;96487;-68
2022/12/13 03:02:12;;;;;;;;;22.00;20.00;;;;;3.32;54.89;98159.50;6289091;27;96412;-68
2022/12/13 03:09:06;;;;;;;;;22.00;20.75;;;;;3.31;54.70;98165.81;6272862;27;97026;-68
2022/12/13 03:15:51;;;;;;;;;21.00;21.00;;;;;3.21;54.25;98171.50;6287003;27;96376;-69
2022/12/13 03:19:00;;;;;;;;;25.00;23.00;;;;;3.06;54.99;98170.75;6280059;27;96215;-67
2022/12/13 03:22:06;;;;;;;;;27.60;26.20;;;;;3.08;54.73;98170.56;6288464;27;96365;-69
2022/12/13 03:25:10;;;;;;;;;27.20;24.80;;;;;3.16;54.87;98170.41;6288428;27;96308;-68
2022/12/13 03:28:13;;;;;;;;;26.00;24.00;;;;;3.21;54.47;98173.31;6279086;27;98960;-67
2022/12/13 03:31:17;;;;;;;;;25.00;23.00;;;;;3.23;54.39;98179.25;6287291;27;96730;-69
2022/12/13 03:34:22;;;;;;;;;22.60;21.60;;;;;3.28;54.29;98180.34;6287455;27;96433;-68
2022/12/13 03:37:25;;;;;;;;;22.60;19.40;;;;;3.29;54.48;98187.31;6287561;27;96907;-68
2022/12/13 03:40:30;;;;;;;;;23.40;21.40;;;;;3.15;54.36;98179.41;6287821;27;96318;-68
2022/12/13 03:43:34;;;;;;;;;26.50;23.50;;;;;3.23;54.37;98181.94;6275814;27;96592;-69
2022/12/13 03:46:37;;;;;;;;;24.60;23.00;;;;;3.01;54.73;98189.13;6286698;27;96507;-68
2022/12/13 03:49:42;;;;;;;;;22.00;19.50;;;;;2.82;55.40;98187.94;6288051;27;97018;-67
2022/12/13 03:52:46;;;;;;;;;22.00;21.00;;;;;2.78;55.76;98193.81;6287057;27;97463;-69
2022/12/13 03:55:50;;;;;;;;;25.00;23.00;;;;;2.55;56.02;98183.31;6287609;27;97082;-68
2022/12/13 03:58:53;;;;;;;;;22.00;21.00;;;;;2.64;56.35;98184.84;6284719;27;96978;-67
2022/12/13 04:01:57;;;;;;;;;24.50;22.00;;;;;2.66;56.29;98192.66;6286292;27;97265;-69
2022/12/13 04:05:01;;;;;;;;;26.00;25.00;;;;;2.68;56.41;98188.81;6302056;27;98105;-69
2022/12/13 04:08:06;;;;;;;;;27.50;24.50;;;;;2.62;56.61;98197.53;6286554;27;96287;-69
2022/12/13 04:14:45;;;;;;;;;23.00;20.25;;;;;2.60;56.66;98192.38;6286733;27;96730;-69
2022/12/13 04:17:49;;;;;;;;;27.80;24.80;;;;;2.59;56.71;98204.03;6295207;27;96857;-69
2022/12/13 04:20:54;;;;;;;;;28.40;26.00;;;;;2.51;56.92;98195.34;6278281;27;96680;-69
2022/12/13 04:23:58;;;;;;;;;24.40;24.00;;;;;2.60;57.07;98199.53;6266975;27;97091;-69
2022/12/13 04:27:04;;;;;;;;;22.50;21.00;;;;;2.66;56.49;98204.13;6287237;27;96223;-68
2022/12/13 04:30:09;;;;;;;;;24.80;24.40;;;;;2.57;56.73;98205.25;6286067;27;96343;-67
2022/12/13 04:33:12;;;;;;;;;27.50;26.00;;;;;2.50;57.35;98207.00;6284338;27;97315;-69
2022/12/13 04:36:19;;;;;;;;;20.60;19.60;;;;;2.60;57.36;98210.19;6282029;27;97386;-69
2022/12/13 04:39:34;;;;;;;;;27.60;24.60;;;;;2.52;57.43;98213.81;6287244;27;96818;-69
2022/12/13 04:42:37;;;;;;;;;27.00;24.00;;;;;2.41;57.50;98200.16;6285818;27;96479;-68
2022/12/13 04:45:41;;;;;;;;;25.00;22.60;;;;;2.54;57.59;98213.63;6278813;27;96539;-68
2022/12/13 04:48:44;;;;;;;;;25.25;22.50;;;;;2.43;57.20;98211.44;6285939;27;96469;-68
2022/12/13 04:51:49;;;;;;;;;25.80;24.00;;;;;2.42;57.68;98213.25;6283704;27;96373;-68
2022/12/13 04:54:59;;;;;;;;;23.00;22.00;;;;;2.40;57.08;98211.78;6271666;27;96314;-69
2022/12/13 04:58:02;;;;;;;;;26.20;24.00;;;;;2.44;57.29;98216.59;6299012;27;96304;-69
2022/12/13 05:01:07;;;;;;;;;24.00;22.00;;;;;2.41;56.90;98218.75;6271271;27;96647;-69
2022/12/13 05:04:11;;;;;;;;;21.00;20.20;;;;;2.42;56.56;98218.59;6284282;27;96925;-68
2022/12/13 05:07:15;;;;;;;;;21.75;21.50;;;;;2.49;56.66;98222.13;6295289;27;96904;-69
2022/12/13 05:10:19;;;;;;;;;24.25;22.25;;;;;2.44;56.44;98223.72;6287712;27;97221;-69
2022/12/13 05:13:40;;;;;;;;;21.20;20.20;;;;;2.40;56.43;98222.44;6299689;27;96439;-68
2022/12/13 05:16:43;;;;;;;;;26.60;25.40;;;;;2.44;55.91;98205.94;6292362;27;96483;-68
2022/12/13 05:19:47;;;;;;;;;21.50;19.50;;;;;2.55;55.86;98217.91;6298852;27;96403;-67
2022/12/13 05:22:51;;;;;;;;;25.00;23.50;;;;;2.58;55.68;98226.38;6294938;27;98951;-69
2022/12/13 05:25:55;;;;;;;;;21.60;21.00;;;;;2.69;54.69;98226.88;6293338;27;98353;-69
2022/12/13 05:28:59;;;;;;;;;23.50;23.00;;;;;2.56;54.82;98224.88;6286665;27;97667;-68
2022/12/13 05:32:02;;;;;;;;;18.20;17.00;;;;;2.57;54.97;98223.88;6288949;27;96528;-69
2022/12/13 05:35:07;;;;;;;;;23.00;21.00;;;;;2.66;54.37;98221.91;6303850;27;97111;-69
2022/12/13 05:38:12;;;;;;;;;18.60;16.00;;;;;2.59;54.63;98222.66;6280976;27;96763;-68
2022/12/13 05:41:19;;;;;;;;;24.20;22.60;;;;;2.68;54.17;98227.91;6274698;27;97058;-68
2022/12/13 05:44:22;;;;;;;;;27.00;22.60;;;;;2.78;54.22;98228.41;6280455;27;96787;-68
2022/12/13 05:47:25;;;;;;;;;20.00;19.50;;;;;2.65;54.07;98231.75;6288997;27;97302;-68
2022/12/13 05:50:29;;;;;;;;;25.00;23.00;;;;;2.66;53.83;98233.41;6280994;27;96573;-68
2022/12/13 05:53:34;;;;;;;;;23.60;19.20;;;;;2.64;53.64;98229.28;6286248;27;97055;-68
2022/12/13 05:56:37;;;;;;;;;23.00;21.00;;;;;2.69;53.48;98234.88;6283597;27;96411;-68
2022/12/13 05:59:40;;;;;;;;;18.80;17.00;;;;;2.70;54.13;98242.66;6272827;27;96192;-68
2022/12/13 06:02:44;;;;;;;;;16.50;16.00;;;;;2.65;53.93;98237.06;6284790;27;98228;-68
2022/12/13 06:05:48;;;;;;;;;21.60;20.40;;;;;2.55;53.61;98237.34;6287965;27;97041;-68
2022/12/13 06:08:53;;;;;;;;;20.20;18.40;;;;;2.68;53.21;98246.53;6272299;27;96743;-68
2022/12/13 06:11:56;;;;;;;;;19.00;19.00;;;;;2.58;53.69;98245.00;6283227;27;96199;-68
2022/12/13 06:15:04;;;;;;;;;14.50;13.00;;;;;2.63;53.15;98247.09;6283978;27;96524;-69
2022/12/13 06:18:24;;;;;;;;;18.20;16.60;;;;;2.60;53.12;98237.63;6288054;27;97553;-70
2022/12/13 06:21:29;;;;;;;;;15.40;14.40;;;;;2.52;52.82;98244.91;6286974;27;96045;-69
2022/12/13 06:24:49;;;;;;;;;18.40;17.00;;;;;2.74;52.90;98259.88;6288035;27;97261;-69
2022/12/13 06:27:53;;;;;;;;;21.00;18.50;;;;;2.69;53.34;98266.81;6304180;27;96290;-69
2022/12/13 06:30:59;;;;;;;;;19.80;18.20;;;;;2.72;52.75;98269.09;6288823;27;96369;-67
2022/12/13 06:34:03;;;;;;;;;20.60;18.60;;;;;2.85;53.10;98263.91;6288215;27;96633;-68
2022/12/13 06:37:17;;;;;;;;;18.00;17.00;;;;;2.92;52.38;98270.97;6276526;27;96452;-69
2022/12/13 06:40:22;;;;;;;;;21.20;21.00;;;;;2.81;52.97;98273.28;6287541;27;96354;-69
2022/12/13 06:43:25;;;;;;;;;20.00;19.80;;;;;2.89;52.51;98273.16;6286910;27;96861;-68
2022/12/13 06:46:29;;;;;;;;;20.00;18.50;;;;;2.89;52.20;98275.81;6287649;27;96475;-68
2022/12/13 06:49:32;;;;;;;;;19.40;19.40;;;;;2.94;52.31;98281.41;6289999;27;97945;-68
2022/12/13 06:52:36;;;;;;;;;19.40;19.40;;;;;2.86;52.10;98295.66;6292334;27;96874;-68
2022/12/13 06:55:41;;;;;;;;;19.00;17.50;;;;;2.98;52.47;98288.84;6298908;27;96896;-69
2022/12/13 06:58:44;;;;;;;;;21.00;19.40;;;;;3.01;52.12;98298.28;6298991;27;96646;-69
2022/12/13 07:01:48;;;;;;;;;21.00;17.75;;;;;3.04;51.70;98298.72;6287578;27;96573;-68
2022/12/13 07:04:54;;;;;;;;;19.60;19.00;;;;;2.91;51.98;98266.66;6287557;27;96566;-69
2022/12/13 07:07:58;;;;;;;;;19.80;17.40;;;;;3.07;52.04;98297.56;6298451;27;96153;-69
2022/12/13 07:11:04;;;;;;;;;20.00;18.00;;;;;3.18;51.90;98302.34;6288790;27;96232;-69
2022/12/13 07:14:07;;;;;;;;;24.00;21.60;;;;;3.33;51.55;98312.97;6287641;27;96377;-67
2022/12/13 07:17:11;;;;;;;;;18.40;17.40;;;;;3.20;51.34;98321.66;6282029;27;96357;-68
2022/12/13 07:20:14;;;;;;;;;18.40;17.40;;;;;3.06;51.79;98317.19;6286603;27;96367;-68
2022/12/13 07:23:18;;;;;;;;;17.00;16.00;;;;;3.18;51.56;98313.00;6286931;27;96276;-67
2022/12/13 07:26:28;;;;;;;;;21.00;20.00;;;;;3.40;51.63;98313.88;6291406;27;96234;-69
2022/12/13 07:29:31;;;;;;;;;21.00;19.80;;;;;3.38;51.17;98321.22;6287681;27;96967;-68
2022/12/13 07:32:35;;;;;;;;;21.60;21.00;;;;;3.37;51.58;98335.56;6287715;27;96452;-68
2022/12/13 07:35:38;;;;;;;;;21.00;21.00;;;;;3.32;51.15;98330.78;6302816;27;96469;-68
2022/12/13 07:38:42;;;;;;;;;22.00;20.00;;;;;3.35;51.63;98330.41;6288537;27;96467;-69
2022/12/13 07:41:48;;;;;;;;;20.40;18.40;;;;;3.43;51.63;98326.78;6288284;27;96637;-68
2022/12/13 07:44:52;;;;;;;;;21.00;19.00;;;;;3.51;51.23;98331.19;6287843;27;96926;-68
2022/12/13 07:47:56;;;;;;;;;22.80;21.80;;;;;3.55;51.13;98335.13;6289197;27;96286;-69
2022/12/13 07:51:02;;;;;;;;;22.20;21.00;;;;;3.60;50.68;98330.88;6296693;27;96331;-68
2022/12/13 07:54:07;;;;;;;;;22.40;21.00;;;;;3.59;50.79;98331.06;6292673;27;96569;-68
2022/12/13 07:57:12;;;;;;;;;18.00;18.00;;;;;3.66;50.75;98337.28;6287898;27;97491;-69
2022/12/13 08:00:17;;;;;;;;;26.40;24.80;;;;;3.76;50.63;98327.91;6288192;27;96714;-68
2022/12/13 08:03:20;;;;;;;;;19.25;18.00;;;;;3.87;50.08;98331.91;6288026;27;96895;-68
2022/12/13 08:06:27;;;;;;;;;20.00;18.00;;;;;3.77;49.86;98329.56;6287464;27;96775;-68
2022/12/13 08:09:31;;;;;;;;;20.50;18.50;;;;;3.73;49.73;98338.97;6288320;27;96210;-68
2022/12/13 08:12:35;;;;;;;;;14.80;14.80;;;;;3.70;48.73;98343.88;6288404;27;96705;-68
2022/12/13 08:15:39;;;;;;;;;13.75;12.00;;;;;3.79;48.90;98348.06;6304326;27;96351;-69
2022/12/13 08:18:43;;;;;;;;;18.00;17.00;;;;;3.73;48.02;98348.81;6286948;27;96313;-69
2022/12/13 08:21:46;;;;;;;;;15.00;14.00;;;;;3.84;48.46;98337.66;6287683;27;96991;-69
2022/12/13 08:25:00;;;;;;;;;14.40;13.40;;;;;3.95;47.94;98333.63;6283732;27;96773;-68
2022/12/13 08:28:05;;;;;;;;;15.00;13.40;;;;;4.05;47.76;98347.47;6290835;27;96680;-69
2022/12/13 08:31:11;;;;;;;;;17.00;15.00;;;;;4.14;47.75;98343.63;6288295;27;96424;-69
2022/12/13 08:34:15;;;;;;;;;14.25;13.00;;;;;4.13;48.33;98344.63;6264308;27;98345;-68
2022/12/13 08:37:18;;;;;;;;;15.00;15.00;;;;;4.20;48.00;98354.34;6289469;27;96292;-68
2022/12/13 08:40:21;;;;;;;;;14.00;13.00;;;;;4.18;47.95;98353.72;6303713;27;96882;-68
2022/12/13 08:43:26;;;;;;;;;16.00;15.00;;;;;4.22;48.20;98356.81;6294321;27;97095;-69
2022/12/13 08:46:29;;;;;;;;;14.00;12.00;;;;;4.23;47.45;98353.97;6290171;27;96229;-68
2022/12/13 08:49:33;;;;;;;;;14.80;13.00;;;;;4.11;47.61;98333.31;6286807;27;96833;-67
2022/12/13 08:52:36;;;;;;;;;17.00;13.20;;;;;4.31;47.74;98352.97;6286028;27;98340;-68
2022/12/13 08:55:43;;;;;;;;;17.00;16.00;;;;;4.36;47.46;98356.72;6287779;27;96807;-70
2022/12/13 08:58:51;;;;;;;;;18.60;17.00;;;;;4.26;47.91;98358.06;6289726;27;96614;-68
2022/12/13 09:01:54;;;;;;;;;17.00;15.00;;;;;4.18;47.41;98356.38;6290917;27;97036;-69
2022/12/13 09:05:08;;;;;;;;;16.40;15.80;;;;;4.28;47.31;98362.22;6290301;27;96276;-69
2022/12/13 09:08:12;;;;;;;;;20.00;19.40;;;;;4.30;47.29;98352.16;6288234;27;96643;-68
2022/12/13 09:11:27;;;;;;;;;19.50;18.50;;;;;4.38;46.85;98347.69;6289117;27;96627;-69
2022/12/13 09:14:42;;;;;;;;;20.60;19.00;;;;;4.39;47.41;98355.50;6290907;27;96417;-68
2022/12/13 09:17:48;;;;;;;;;21.00;19.00;;;;;4.11;47.12;98328.81;6290153;27;96489;-68
2022/12/13 09:20:54;;;;;;;;;16.75;15.25;;;;;4.28;47.36;98340.03;6286486;27;96344;-68
2022/12/13 09:24:13;;;;;;;;;16.20;15.00;;;;;4.41;47.20;98350.78;6288960;27;96904;-67
2022/12/13 09:27:29;;;;;;;;;19.00;17.00;;;;;4.41;47.04;98349.97;6288341;27;96646;-68
2022/12/13 09:30:34;;;;;;;;;20.00;18.00;;;;;4.31;46.30;98345.78;6288483;27;96794;-69
2022/12/13 09:33:37;;;;;;;;;20.00;19.00;;;;;4.20;47.03;98333.00;6288464;27;97943;-69
2022/12/13 09:36:44;;;;;;;;;18.25;18.25;;;;;4.36;46.58;98348.72;6304326;27;96597;-69
2022/12/13 09:39:47;;;;;;;;;21.00;19.00;;;;;4.38;46.49;98351.19;6287567;27;97417;-68
2022/12/13 09:42:58;;;;;;;;;21.00;19.00;;;;;4.48;47.26;98345.50;6295782;27;96688;-68
2022/12/13 09:46:26;;;;;;;;;25.33;24.00;;;;;4.32;47.33;98351.97;6288982;27;96646;-68
2022/12/13 09:49:47;;;;;;;;;23.60;21.00;;;;;4.26;47.42;98352.72;6289725;27;96465;-67
2022/12/13 09:52:57;;;;;;;;;18.00;18.00;;;;;4.34;47.51;98358.78;6292365;27;97346;-70
2022/12/13 09:56:02;;;;;;;;;23.00;21.00;;;;;4.26;46.72;98347.41;6289948;27;96215;-69
2022/12/13 09:59:14;;;;;;;;;22.00;20.50;;;;;4.32;47.22;98355.47;6279314;27;96588;-69
2022/12/13 10:02:25;;;;;;;;;18.00;16.40;;;;;4.34;46.10;98352.59;6287514;27;96521;-68
2022/12/13 10:05:31;;;;;;;;;21.00;20.00;;;;;4.30;46.83;98357.47;6289600;27;96278;-69
2022/12/13 10:08:43;;;;;;;;;16.00;14.20;;;;;4.17;46.09;98354.72;6288021;27;97092;-68
2022/12/13 10:11:49;;;;;;;;;15.00;14.00;;;;;4.13;45.16;98356.13;6300690;27;96255;-67
2022/12/13 10:14:58;;;;;;;;;19.00;17.00;;;;;3.99;45.87;98358.91;6289786;27;96303;-70
2022/12/13 10:18:04;;;;;;;;;17.40;16.00;;;;;4.02;45.76;98351.31;6290249;27;96475;-68
2022/12/13 10:21:11;;;;;;;;;17.60;16.60;;;;;4.07;45.65;98359.56;6289904;27;96883;-69
2022/12/13 10:24:18;;;;;;;;;16.75;16.00;;;;;4.22;46.08;98351.47;6290690;27;96516;-68
2022/12/13 10:27:36;;;;;;;;;17.80;16.80;;;;;4.26;46.41;98353.56;6276749;27;97154;-68
2022/12/13 10:30:41;;;;;;;;;21.00;19.50;;;;;4.07;46.27;98334.75;6288349;27;97105;-69
2022/12/13 10:33:55;;;;;;;;;19.40;18.00;;;;;4.15;46.61;98354.13;6299608;27;96808;-67
2022/12/13 10:36:58;;;;;;;;;21.00;19.00;;;;;4.15;47.05;98339.94;6285203;27;96881;-68
2022/12/13 10:40:03;;;;;;;;;24.00;20.25;;;;;4.33;47.15;98333.09;6286250;27;96535;-68
2022/12/13 10:43:15;;;;;;;;;22.00;19.00;;;;;4.52;47.07;98333.41;6288168;27;96636;-69
2022/12/13 10:46:20;;;;;;;;;21.60;20.60;;;;;4.71;46.00;98314.81;6302918;27;97856;-68
2022/12/13 10:49:37;;;;;;;;;18.50;18.50;;;;;5.21;45.13;98318.94;6288542;27;96475;-69
2022/12/13 10:52:47;;;;;;;;;22.00;20.50;;;;;6.10;43.22;98332.03;6284693;27;96736;-69
2022/12/13 10:55:55;;;;;;;;;16.50;16.00;;;;;7.44;41.58;98340.25;6287010;27;96367;-69
2022/12/13 10:59:22;;;;;;;;;20.25;18.25;;;;;9.87;38.17;98335.88;6288881;27;96450;-68
2022/12/13 11:02:34;;;;;;;;;17.00;16.00;;;;;12.30;33.62;98332.91;6281254;27;96338;-69
2022/12/13 11:05:40;;;;;;;;;16.20;15.80;;;;;14.35;31.19;98336.75;6279111;27;96421;-69
2022/12/13 11:08:43;;;;;;;;;16.60;15.60;;;;;15.10;28.54;98328.28;6289498;27;97097;-70
2022/12/13 11:11:51;;;;;;;;;14.50;12.50;;;;;15.30;27.23;98329.47;6287709;27;97015;-69
2022/12/13 11:15:05;;;;;;;;;16.50;15.50;;;;;14.73;27.10;98332.97;6286502;27;96342;-70
2022/12/13 11:18:20;;;;;;;;;17.00;15.00;;;;;14.41;27.15;98324.91;6292878;27;96529;-70
2022/12/13 11:21:29;;;;;;;;;16.00;15.33;;;;;14.73;27.14;98322.13;6286568;27;96434;-68
2022/12/13 11:24:36;;;;;;;;;17.00;15.00;;;;;14.84;27.78;98323.84;6282778;27;96967;-69
2022/12/13 11:27:58;;;;;;;;;18.67;17.67;;;;;14.74;27.23;98324.59;6284618;27;96629;-69
2022/12/13 11:31:13;;;;;;;;;13.60;13.00;;;;;14.18;27.52;98312.47;6286998;27;96430;-70
2022/12/13 11:34:29;;;;;;;;;13.75;13.75;;;;;13.33;28.24;98316.00;6286911;27;96822;-70
2022/12/13 11:37:43;;;;;;;;;16.25;16.25;;;;;12.49;29.38;98315.38;6280087;27;98519;-70
2022/12/13 11:40:53;;;;;;;;;17.00;15.40;;;;;12.05;29.65;98303.59;6281312;27;96194;-68
2022/12/13 11:44:01;;;;;;;;;16.00;15.00;;;;;11.65;29.62;98310.97;6274991;27;97536;-70
2022/12/13 11:47:09;;;;;;;;;17.80;16.00;;;;;12.47;29.60;98316.66;6288843;27;96244;-69
2022/12/13 11:50:19;;;;;;;;;21.00;18.00;;;;;13.42;28.65;98313.66;6286810;27;96962;-70
2022/12/13 11:53:49;;;;;;;;;18.40;17.40;;;;;14.27;26.90;98316.34;6287881;27;97604;-70
2022/12/13 11:56:56;;;;;;;;;19.67;17.67;;;;;14.74;26.72;98312.91;6301972;27;96411;-71
2022/12/13 12:00:09;;;;;;;;;16.80;16.00;;;;;15.26;26.24;98318.31;6289906;27;96695;-70
2022/12/13 12:03:19;;;;;;;;;16.20;15.80;;;;;14.76;26.64;98323.50;6287296;27;96531;-71
2022/12/13 12:06:24;;;;;;;;;18.60;16.60;;;;;15.07;26.05;98322.59;6270580;27;96664;-70
2022/12/13 12:09:31;;;;;;;;;17.00;16.00;;;;;15.57;25.91;98327.44;6288080;27;96417;-71
2022/12/13 12:12:36;;;;;;;;;18.00;16.00;;;;;15.72;25.66;98315.78;6288247;27;96827;-69
2022/12/13 12:15:46;;;;;;;;;16.75;15.00;;;;;15.24;25.88;98325.94;6286008;27;96356;-70
2022/12/13 12:18:57;;;;;;;;;16.00;15.00;;;;;14.15;26.75;98318.44;6281430;27;96921;-71
2022/12/13 12:22:25;;;;;;;;;25.75;24.00;;;;;12.95;27.82;98322.22;6303800;27;96408;-70
2022/12/13 12:25:45;;;;;;;;;16.00;15.40;;;;;11.82;29.42;98330.75;6287147;27;96337;-68
2022/12/13 12:29:12;;;;;;;;;21.00;19.40;;;;;10.91;31.17;98322.72;6274346;27;96265;-69
2022/12/13 12:32:27;;;;;;;;;18.60;17.00;;;;;10.18;32.14;98326.72;6293734;27;96319;-69
2022/12/13 12:35:50;;;;;;;;;20.80;19.00;;;;;9.53;33.67;98332.03;6288415;27;97017;-68
2022/12/13 12:39:16;;;;;;;;;23.00;21.00;;;;;8.92;34.41;98326.00;6302963;27;97060;-70
2022/12/13 12:42:39;;;;;;;;;22.50;19.00;;;;;8.42;35.38;98326.13;6287788;27;96994;-69
2022/12/13 12:46:13;;;;;;;;;21.00;21.00;;;;;7.94;36.66;98335.81;6307596;27;96349;-70
2022/12/13 12:49:43;;;;;;;;;21.50;20.50;;;;;7.53;36.81;98331.75;6307534;27;97466;-69
2022/12/13 12:53:00;;;;;;;;;18.40;18.20;;;;;7.01;37.76;98334.69;6246616;27;96451;-69
2022/12/13 12:56:23;;;;;;;;;24.40;20.00;;;;;6.81;38.47;98340.94;6301455;27;96384;-70
2022/12/13 12:59:35;;;;;;;;;20.00;19.60;;;;;6.51;39.05;98334.44;6306941;27;96531;-68
2022/12/13 13:02:43;;;;;;;;;22.80;20.80;;;;;6.24;39.50;98333.66;6302246;27;96659;-69
2022/12/13 13:05:52;;;;;;;;;24.60;23.60;;;;;6.00;39.99;98342.31;6300230;27;97631;-71
2022/12/13 13:09:07;;;;;;;;;24.00;23.00;;;;;5.91;40.58;98340.88;6312379;27;97629;-67
2022/12/13 13:12:11;;;;;;;;;22.00;21.00;;;;;5.84;40.46;98350.72;6298019;27;96407;-70
2022/12/13 13:15:56;;;;;;;;;21.00;19.25;;;;;5.68;41.56;98347.38;6282437;27;96476;-69
2022/12/13 13:19:00;;;;;;;;;29.00;26.00;;;;;5.57;41.30;98345.31;6286519;27;96280;-69
2022/12/13 13:22:05;;;;;;;;;25.00;25.00;;;;;5.46;41.91;98348.59;6287238;27;96808;-69
2022/12/13 13:25:31;;;;;;;;;23.60;22.00;;;;;5.35;41.81;98343.84;6287260;27;96715;-70
2022/12/13 13:28:42;;;;;;;;;24.00;21.67;;;;;5.27;42.43;98348.53;6287167;27;96968;-69
2022/12/13 13:31:57;;;;;;;;;26.00;22.00;;;;;5.23;42.91;98340.06;6286974;27;96466;-69
2022/12/13 13:35:52;;;;;;;;;24.60;23.60;;;;;5.12;42.63;98346.84;6274501;27;96521;-70
2022/12/13 13:38:55;;;;;;;;;25.00;24.00;;;;;5.10;43.34;98356.06;6287901;27;96535;-69
2022/12/13 13:42:18;;;;;;;;;23.60;23.60;;;;;5.09;43.63;98347.22;6301993;27;96452;-70
2022/12/13 13:45:23;;;;;;;;;29.20;26.60;;;;;5.06;43.41;98339.63;6296445;27;96414;-69
2022/12/13 13:48:59;;;;;;;;;29.00;26.00;;;;;4.99;43.61;98356.63;6290601;27;97151;-69
2022/12/13 13:52:18;;;;;;;;;26.00;25.00;;;;;4.89;44.10;98356.22;6295959;27;96359;-69
2022/12/13 13:55:46;;;;;;;;;25.80;24.80;;;;;4.69;44.59;98346.22;6289907;27;96583;-69
2022/12/13 13:59:25;;;;;;;;;25.20;23.20;;;;;4.76;44.37;98356.94;6292381;27;96869;-69
2022/12/13 14:03:13;;;;;;;;;28.00;26.00;;;;;4.67;44.65;98364.31;6245147;27;96799;-71
2022/12/13 14:07:09;;;;;;;;;29.00;26.00;;;;;4.51;45.05;98369.94;6282181;27;96865;-69
2022/12/13 14:10:26;;;;;;;;;29.00;26.00;;;;;4.50;45.56;98365.63;6280347;27;96317;-69
2022/12/13 14:14:11;;;;;;;;;30.00;27.80;;;;;4.41;45.32;98373.97;6288118;27;96855;-70
2022/12/13 14:17:52;;;;;;;;;31.00;28.80;;;;;4.32;45.75;98376.81;6300032;27;96495;-70
2022/12/13 14:21:06;;;;;;;;;29.20;27.00;;;;;4.28;45.72;98374.72;6302350;27;97416;-68
2022/12/13 14:24:35;;;;;;;;;33.40;30.40;;;;;4.35;45.77;98380.91;6288112;27;96783;-69
2022/12/13 14:27:46;;;;;;;;;32.60;29.80;;;;;4.30;45.37;98381.50;6289911;27;96398;-69
2022/12/13 14:30:50;;;;;;;;;35.20;28.20;;;;;4.34;45.42;98382.78;6271303;27;96682;-69
2022/12/13 14:34:04;;;;;;;;;29.75;28.50;;;;;4.32;45.01;98386.66;6289775;27;96394;-69
2022/12/13 14:37:22;;;;;;;;;29.00;27.60;;;;;4.32;45.54;98383.97;6290895;27;96394;-70
2022/12/13 14:40:31;;;;;;;;;36.00;32.00;;;;;4.33;45.62;98385.63;6265308;27;96618;-69
2022/12/13 14:43:35;;;;;;;;;29.60;27.60;;;;;4.28;45.24;98383.56;6287290;27;97843;-68
2022/12/13 14:46:48;;;;;;;;;28.00;26.00;;;;;4.24;44.91;98363.63;6288978;27;97526;-69
2022/12/13 14:49:55;;;;;;;;;27.00;25.67;;;;;4.35;45.19;98395.09;6289667;27;96344;-70
2022/12/13 14:52:59;;;;;;;;;30.00;24.40;;;;;4.29;45.12;98384.38;6289466;27;97268;-70